createdAt,value
2022-12-06T00:01:55.822Z,2.90
2022-12-06T00:04:22.548Z,2.90
2022-12-06T00:06:49.753Z,2.90
2022-12-06T00:09:28.193Z,2.90
2022-12-06T00:11:56.154Z,2.90
2022-12-06T00:14:23.483Z,2.90
2022-12-06T00:16:50.227Z,2.80
2022-12-06T00:19:19.052Z,2.80
2022-12-06T00:21:46.111Z,2.90
2022-12-06T00:24:15.181Z,2.90
2022-12-06T00:26:44.458Z,2.90
2022-12-06T00:29:20.420Z,2.90
2022-12-06T00:31:47.839Z,2.90
2022-12-06T00:34:14.506Z,2.90
2022-12-06T00:36:42.135Z,2.80
2022-12-06T00:39:14.158Z,2.70
2022-12-06T00:41:41.403Z,2.60
2022-12-06T00:44:08.100Z,2.70
2022-12-06T00:46:35.696Z,2.60
2022-12-06T00:49:05.052Z,2.60
2022-12-06T00:51:33.498Z,2.60
2022-12-06T00:54:00.232Z,2.60
2022-12-06T00:56:27.232Z,2.70
2022-12-06T00:58:54.105Z,2.70
2022-12-06T01:01:24.564Z,2.70
2022-12-06T01:03:54.392Z,2.70
2022-12-06T01:06:24.146Z,2.70
2022-12-06T01:08:50.844Z,2.70
2022-12-06T01:11:17.933Z,2.70
2022-12-06T01:13:44.688Z,2.70
2022-12-06T01:16:16.916Z,2.60
2022-12-06T01:18:44.649Z,2.60
2022-12-06T01:21:19.579Z,2.60
2022-12-06T01:23:47.048Z,2.50
2022-12-06T01:26:20.044Z,2.50
2022-12-06T01:28:47.215Z,2.60
2022-12-06T01:31:14.428Z,2.50
2022-12-06T01:33:41.925Z,2.50
2022-12-06T01:36:08.722Z,2.50
2022-12-06T01:38:35.306Z,2.50
2022-12-06T01:41:02.020Z,2.50
2022-12-06T01:43:42.725Z,2.50
2022-12-06T01:46:30.490Z,2.60
2022-12-06T01:48:59.823Z,2.60
2022-12-06T01:51:27.150Z,2.60
2022-12-06T01:53:54.528Z,2.60
2022-12-06T01:56:21.982Z,2.60
2022-12-06T01:58:52.534Z,2.60
2022-12-06T02:01:19.199Z,2.50
2022-12-06T02:03:47.431Z,2.50
2022-12-06T02:06:16.304Z,2.40
2022-12-06T02:08:44.219Z,2.40
2022-12-06T02:11:10.815Z,2.40
2022-12-06T02:13:37.991Z,2.40
2022-12-06T02:16:36.751Z,2.40
2022-12-06T02:19:33.335Z,2.40
2022-12-06T02:22:19.245Z,2.40
2022-12-06T02:25:09.852Z,2.40
2022-12-06T02:28:00.921Z,2.30
2022-12-06T02:30:54.411Z,2.30
2022-12-06T02:33:45.936Z,2.30
2022-12-06T02:36:27.355Z,2.30
2022-12-06T02:39:05.723Z,2.30
2022-12-06T02:41:39.043Z,2.30
2022-12-06T02:44:08.430Z,2.20
2022-12-06T02:46:38.063Z,2.30
2022-12-06T02:49:07.692Z,2.30
2022-12-06T02:51:37.106Z,2.30
2022-12-06T02:54:08.772Z,2.30
2022-12-06T02:56:35.736Z,2.40
2022-12-06T02:59:02.364Z,2.40
2022-12-06T03:01:32.583Z,2.30
2022-12-06T03:04:40.553Z,2.40
2022-12-06T03:07:44.030Z,2.40
2022-12-06T03:10:45.203Z,2.30
2022-12-06T03:13:55.567Z,2.20
2022-12-06T03:16:29.840Z,2.20
2022-12-06T03:19:04.554Z,2.20
2022-12-06T03:21:40.482Z,2.30
2022-12-06T03:24:10.206Z,2.30
2022-12-06T03:26:38.499Z,2.30
2022-12-06T03:29:07.912Z,2.30
2022-12-06T03:31:38.868Z,2.30
2022-12-06T03:34:15.372Z,2.40
2022-12-06T03:36:45.264Z,2.40
2022-12-06T03:39:14.949Z,2.40
2022-12-06T03:41:57.002Z,2.40
2022-12-06T03:44:24.434Z,2.40
2022-12-06T03:46:56.117Z,2.50
2022-12-06T03:49:42.595Z,2.50
2022-12-06T03:52:09.506Z,2.50
2022-12-06T03:54:42.120Z,2.50
2022-12-06T03:57:09.479Z,2.60
2022-12-06T03:59:36.072Z,2.60
2022-12-06T04:02:02.698Z,2.60
2022-12-06T04:04:29.342Z,2.60
2022-12-06T04:06:55.935Z,2.60
2022-12-06T04:09:22.545Z,2.60
2022-12-06T04:11:49.103Z,2.60
2022-12-06T04:14:15.751Z,2.60
2022-12-06T04:16:42.357Z,2.50
2022-12-06T04:19:08.988Z,2.50
2022-12-06T04:21:35.565Z,2.50
2022-12-06T04:24:02.145Z,2.40
2022-12-06T04:26:28.724Z,2.40
2022-12-06T04:28:55.312Z,2.40
2022-12-06T04:31:22.741Z,2.40
2022-12-06T04:33:50.387Z,2.30
2022-12-06T04:36:17.080Z,2.30
2022-12-06T04:38:43.671Z,2.30
2022-12-06T04:41:14.233Z,2.30
2022-12-06T04:43:40.799Z,2.30
2022-12-06T04:46:08.049Z,2.30
2022-12-06T04:48:34.743Z,2.20
2022-12-06T04:51:01.338Z,2.30
2022-12-06T04:53:27.932Z,2.20
2022-12-06T04:55:54.568Z,2.30
2022-12-06T04:58:21.256Z,2.30
2022-12-06T05:00:50.831Z,2.30
2022-12-06T05:03:17.506Z,2.20
2022-12-06T05:05:44.093Z,2.30
2022-12-06T05:08:10.725Z,2.30
2022-12-06T05:10:38.049Z,2.20
2022-12-06T05:13:05.551Z,2.20
2022-12-06T05:15:32.970Z,2.30
2022-12-06T05:17:59.538Z,2.30
2022-12-06T05:20:26.271Z,2.30
2022-12-06T05:22:52.869Z,2.30
2022-12-06T05:25:19.431Z,2.30
2022-12-06T05:27:46.043Z,2.30
2022-12-06T05:30:13.149Z,2.30
2022-12-06T05:32:40.543Z,2.30
2022-12-06T05:35:07.968Z,2.20
2022-12-06T05:37:34.549Z,2.20
2022-12-06T05:40:01.328Z,2.20
2022-12-06T05:42:28.165Z,2.20
2022-12-06T05:44:54.766Z,2.20
2022-12-06T05:47:21.332Z,2.20
2022-12-06T05:49:47.943Z,2.30
2022-12-06T05:52:14.616Z,2.20
2022-12-06T05:54:41.205Z,2.20
2022-12-06T05:57:07.845Z,2.20
2022-12-06T05:59:34.424Z,2.20
2022-12-06T06:02:01.088Z,2.10
2022-12-06T06:04:27.817Z,2.00
2022-12-06T06:06:54.519Z,2.00
2022-12-06T06:09:21.179Z,2.00
2022-12-06T06:11:47.758Z,2.00
2022-12-06T06:14:14.321Z,1.90
2022-12-06T06:16:41.018Z,1.90
2022-12-06T06:19:07.631Z,1.90
2022-12-06T06:21:34.192Z,1.90
2022-12-06T06:24:00.743Z,1.90
2022-12-06T06:26:27.333Z,1.80
2022-12-06T06:28:53.905Z,1.80
2022-12-06T06:31:20.574Z,1.80
2022-12-06T06:33:47.285Z,1.80
2022-12-06T06:36:14.048Z,1.70
2022-12-06T06:38:40.681Z,1.70
2022-12-06T06:41:07.721Z,1.70
2022-12-06T06:43:34.388Z,1.60
2022-12-06T06:46:03.225Z,1.60
2022-12-06T06:48:31.883Z,1.60
2022-12-06T06:51:07.064Z,1.60
2022-12-06T06:53:34.052Z,1.50
2022-12-06T06:56:00.634Z,1.50
2022-12-06T06:58:27.278Z,1.50
2022-12-06T07:00:55.905Z,1.50
2022-12-06T07:03:23.631Z,1.50
2022-12-06T07:06:06.718Z,1.50
2022-12-06T07:08:33.382Z,1.50
2022-12-06T07:11:00.565Z,1.50
2022-12-06T07:13:28.641Z,1.60
2022-12-06T07:15:55.741Z,1.60
2022-12-06T07:18:22.455Z,1.60
2022-12-06T07:20:49.601Z,1.60
2022-12-06T07:23:16.449Z,1.70
2022-12-06T07:25:43.015Z,1.80
2022-12-06T07:28:09.660Z,1.80
2022-12-06T07:30:36.324Z,1.80
2022-12-06T07:33:02.941Z,1.80
2022-12-06T07:35:48.557Z,1.80
2022-12-06T07:38:16.085Z,1.90
2022-12-06T07:43:29.223Z,1.80
2022-12-06T07:45:55.981Z,1.90
2022-12-06T07:48:22.626Z,1.90
2022-12-06T07:50:49.220Z,1.90
2022-12-06T07:53:15.805Z,1.90
2022-12-06T07:55:42.385Z,2.00
2022-12-06T07:58:08.988Z,2.00
2022-12-06T08:00:35.570Z,2.00
2022-12-06T08:03:02.227Z,2.00
2022-12-06T08:05:28.849Z,2.10
2022-12-06T08:07:55.544Z,2.20
2022-12-06T08:10:22.159Z,2.20
2022-12-06T08:12:48.738Z,2.20
2022-12-06T08:15:15.351Z,2.30
2022-12-06T08:17:42.332Z,2.30
2022-12-06T08:20:09.667Z,2.30
2022-12-06T08:22:36.245Z,2.40
2022-12-06T08:25:02.835Z,2.40
2022-12-06T08:27:29.410Z,2.40
2022-12-06T08:29:55.964Z,2.40
2022-12-06T08:32:22.565Z,2.50
2022-12-06T08:34:49.233Z,2.50
2022-12-06T08:37:15.807Z,2.50
2022-12-06T08:39:42.381Z,2.50
2022-12-06T08:42:08.947Z,2.50
2022-12-06T08:44:35.577Z,2.50
2022-12-06T08:47:02.909Z,2.50
2022-12-06T08:49:30.516Z,2.60
2022-12-06T08:51:58.773Z,2.60
2022-12-06T08:54:26.117Z,2.60
2022-12-06T08:56:52.848Z,2.60
2022-12-06T08:59:20.053Z,2.60
2022-12-06T09:01:47.362Z,2.60
2022-12-06T09:04:14.385Z,2.60
2022-12-06T09:06:42.710Z,2.60
2022-12-06T09:09:10.245Z,2.60
2022-12-06T09:11:37.452Z,2.60
2022-12-06T09:14:04.340Z,2.70
2022-12-06T09:16:31.276Z,2.60
2022-12-06T09:18:57.912Z,2.70
2022-12-06T09:21:26.574Z,2.70
2022-12-06T09:23:57.385Z,2.70
2022-12-06T09:26:24.755Z,2.70
2022-12-06T09:28:53.519Z,2.70
2022-12-06T09:31:20.296Z,2.60
2022-12-06T09:33:46.985Z,2.70
2022-12-06T09:36:23.978Z,2.70
2022-12-06T09:38:57.157Z,2.70
2022-12-06T09:41:45.314Z,2.80
2022-12-06T09:45:00.233Z,2.80
2022-12-06T09:47:49.732Z,2.80
2022-12-06T09:50:59.669Z,2.80
2022-12-06T09:53:44.794Z,2.80
2022-12-06T09:56:29.329Z,2.80
2022-12-06T09:59:19.710Z,2.80
2022-12-06T10:02:23.729Z,2.80
2022-12-06T10:05:08.304Z,2.80
2022-12-06T10:08:07.054Z,2.80
2022-12-06T10:10:39.895Z,2.80
2022-12-06T10:13:12.125Z,2.80
2022-12-06T10:15:46.671Z,2.80
2022-12-06T10:18:22.067Z,2.80
2022-12-06T10:21:21.514Z,2.80
2022-12-06T10:24:27.574Z,2.80
2022-12-06T10:27:00.150Z,2.90
2022-12-06T10:29:54.845Z,2.80
2022-12-06T10:32:40.009Z,2.90
2022-12-06T10:35:34.194Z,2.80
2022-12-06T10:38:09.786Z,2.90
2022-12-06T10:41:18.206Z,2.90
2022-12-06T10:44:17.817Z,2.90
2022-12-06T10:46:46.954Z,2.90
2022-12-06T10:49:39.625Z,2.90
2022-12-06T10:52:42.584Z,3.00
2022-12-06T10:55:09.102Z,2.90
2022-12-06T10:58:13.170Z,3.00
2022-12-06T11:00:57.474Z,2.90
2022-12-06T11:03:57.390Z,3.00
2022-12-06T11:06:50.109Z,3.00
2022-12-06T11:09:40.828Z,3.00
2022-12-06T11:12:30.996Z,3.00
2022-12-06T11:15:37.779Z,2.90
2022-12-06T11:18:11.061Z,2.90
2022-12-06T11:20:58.804Z,2.90
2022-12-06T11:23:45.305Z,2.90
2022-12-06T11:26:15.729Z,3.00
2022-12-06T11:28:48.082Z,3.00
2022-12-06T11:31:24.383Z,3.00
2022-12-06T11:33:50.980Z,3.00
2022-12-06T11:36:19.152Z,3.10
2022-12-06T11:38:46.374Z,3.10
2022-12-06T11:41:22.025Z,3.10
2022-12-06T11:43:49.321Z,3.20
2022-12-06T11:46:16.006Z,3.20
2022-12-06T11:48:43.208Z,3.20
2022-12-06T11:51:21.173Z,3.30
2022-12-06T11:54:08.099Z,3.30
2022-12-06T11:56:37.621Z,3.20
2022-12-06T11:59:19.199Z,3.30
2022-12-06T12:01:49.385Z,3.30
2022-12-06T12:04:36.946Z,3.30
2022-12-06T12:07:09.317Z,3.30
2022-12-06T12:09:49.519Z,3.40
2022-12-06T12:12:19.941Z,3.30
2022-12-06T12:14:56.405Z,3.30
2022-12-06T12:17:29.442Z,3.30
2022-12-06T12:20:08.431Z,3.30
2022-12-06T12:22:42.400Z,3.30
2022-12-06T12:25:30.022Z,3.30
2022-12-06T12:27:58.521Z,3.30
2022-12-06T12:30:29.399Z,3.30
2022-12-06T12:33:05.180Z,3.30
2022-12-06T12:35:37.219Z,3.30
2022-12-06T12:38:09.634Z,3.30
2022-12-06T12:40:38.362Z,3.40
2022-12-06T12:43:04.910Z,3.40
2022-12-06T12:45:32.039Z,3.40
2022-12-06T12:48:01.099Z,3.40
2022-12-06T12:50:29.650Z,3.30
2022-12-06T12:52:56.330Z,3.30
2022-12-06T12:55:30.935Z,3.40
2022-12-06T12:58:00.974Z,3.50
2022-12-06T13:00:37.157Z,3.50
2022-12-06T13:03:49.042Z,3.50
2022-12-06T13:06:04.410Z,3.50
2022-12-06T13:08:34.898Z,3.50
2022-12-06T13:11:05.359Z,3.40
2022-12-06T13:13:44.261Z,3.40
2022-12-06T13:16:14.687Z,3.50
2022-12-06T13:18:45.868Z,3.50
2022-12-06T13:21:22.451Z,3.50
2022-12-06T13:23:55.762Z,3.50
2022-12-06T13:26:26.881Z,3.40
2022-12-06T13:29:01.282Z,3.30
2022-12-06T13:31:32.722Z,3.40
2022-12-06T13:34:04.224Z,3.30
2022-12-06T13:36:34.936Z,3.40
2022-12-06T13:39:30.105Z,3.40
2022-12-06T13:41:57.868Z,3.40
2022-12-06T13:44:42.188Z,3.40
2022-12-06T13:47:27.393Z,3.40
2022-12-06T13:49:55.883Z,3.40
2022-12-06T13:52:43.488Z,3.40
2022-12-06T13:55:25.444Z,3.40
2022-12-06T13:58:00.014Z,3.40
2022-12-06T14:00:29.649Z,3.40
2022-12-06T14:03:06.061Z,3.40
2022-12-06T14:08:29.888Z,3.40
2022-12-06T14:11:26.703Z,3.40
2022-12-06T14:13:56.279Z,3.40
2022-12-06T14:16:28.238Z,3.40
2022-12-06T14:18:55.169Z,3.40
2022-12-06T14:21:30.141Z,3.40
2022-12-06T14:23:57.271Z,3.40
2022-12-06T14:26:27.443Z,3.40
2022-12-06T14:28:56.191Z,3.40
2022-12-06T14:31:37.667Z,3.40
2022-12-06T14:34:05.091Z,3.40
2022-12-06T14:36:40.194Z,3.40
2022-12-06T14:39:15.453Z,3.40
2022-12-06T14:41:52.099Z,3.40
2022-12-06T14:44:20.540Z,3.40
2022-12-06T14:46:48.627Z,3.40
2022-12-06T14:49:19.285Z,3.40
2022-12-06T14:51:45.886Z,3.40
2022-12-06T14:54:27.541Z,3.40
2022-12-06T14:56:54.275Z,3.40
2022-12-06T14:59:45.104Z,3.40
2022-12-06T15:02:24.966Z,3.40
2022-12-06T15:04:52.276Z,3.40
2022-12-06T15:07:40.865Z,3.40
2022-12-06T15:10:24.027Z,3.40
2022-12-06T15:12:52.018Z,3.40
2022-12-06T15:15:36.362Z,3.30
2022-12-06T15:18:24.416Z,3.40
2022-12-06T15:20:51.645Z,3.40
2022-12-06T15:23:19.089Z,3.30
2022-12-06T15:25:45.690Z,3.30
2022-12-06T15:28:16.966Z,3.30
2022-12-06T15:30:46.360Z,3.30
2022-12-06T15:33:23.555Z,3.30
2022-12-06T15:35:51.295Z,3.30
2022-12-06T15:38:18.206Z,3.30
2022-12-06T15:40:47.889Z,3.30
2022-12-06T15:43:25.674Z,3.30
2022-12-06T15:45:53.240Z,3.30
2022-12-06T15:48:20.024Z,3.30
2022-12-06T15:50:47.287Z,3.30
2022-12-06T15:53:16.041Z,3.30
2022-12-06T15:55:42.648Z,3.30
2022-12-06T15:58:09.363Z,3.30
2022-12-06T16:00:36.083Z,3.30
2022-12-06T16:03:02.814Z,3.30
2022-12-06T16:05:29.634Z,3.30
2022-12-06T16:07:56.493Z,3.30
2022-12-06T16:10:29.377Z,3.30
2022-12-06T16:13:12.036Z,3.30
2022-12-06T16:15:38.629Z,3.30
2022-12-06T16:18:05.499Z,3.30
2022-12-06T16:20:32.077Z,3.20
2022-12-06T16:23:06.402Z,3.30
2022-12-06T16:25:32.985Z,3.30
2022-12-06T16:27:59.617Z,3.30
2022-12-06T16:30:33.265Z,3.30
2022-12-06T16:33:05.827Z,3.20
2022-12-06T16:35:34.464Z,3.30
2022-12-06T16:38:01.050Z,3.30
2022-12-06T16:40:28.381Z,3.30
2022-12-06T16:42:54.964Z,3.30
2022-12-06T16:45:21.564Z,3.30
2022-12-06T16:47:48.137Z,3.30
2022-12-06T16:50:23.265Z,3.30
2022-12-06T16:52:51.362Z,3.30
2022-12-06T16:55:18.505Z,3.30
2022-12-06T16:57:45.364Z,3.30
2022-12-06T17:00:13.676Z,3.30
2022-12-06T17:02:40.549Z,3.20
2022-12-06T17:05:07.659Z,3.20
2022-12-06T17:07:35.650Z,3.20
2022-12-06T17:10:02.406Z,3.30
2022-12-06T17:12:28.984Z,3.20
2022-12-06T17:14:55.574Z,3.20
2022-12-06T17:17:22.731Z,3.20
2022-12-06T17:19:49.652Z,3.20
2022-12-06T17:22:16.843Z,3.20
2022-12-06T17:24:43.775Z,3.20
2022-12-06T17:27:11.633Z,3.30
2022-12-06T17:29:38.275Z,3.20
2022-12-06T17:32:05.275Z,3.30
2022-12-06T17:34:31.873Z,3.30
2022-12-06T17:36:58.817Z,3.30
2022-12-06T17:39:25.749Z,3.30
2022-12-06T17:41:52.427Z,3.40
2022-12-06T17:44:19.468Z,3.30
2022-12-06T17:46:46.045Z,3.40
2022-12-06T17:49:14.958Z,3.40
2022-12-06T17:51:41.608Z,3.40
2022-12-06T17:54:09.472Z,3.40
2022-12-06T17:56:39.152Z,3.40
2022-12-06T17:59:08.596Z,3.40
2022-12-06T18:02:06.171Z,3.40
2022-12-06T18:04:22.686Z,3.40
2022-12-06T18:06:49.264Z,3.40
2022-12-06T18:09:16.045Z,3.40
2022-12-06T18:11:43.028Z,3.40
2022-12-06T18:14:13.394Z,3.40
2022-12-06T18:16:41.495Z,3.40
2022-12-06T18:19:13.659Z,3.50
2022-12-06T18:21:40.927Z,3.40
2022-12-06T18:24:27.931Z,3.40
2022-12-06T18:26:55.497Z,3.50
2022-12-06T18:29:23.368Z,3.40
2022-12-06T18:31:50.541Z,3.40
2022-12-06T18:34:17.339Z,3.40
2022-12-06T18:36:43.954Z,3.50
2022-12-06T18:39:16.483Z,3.50
2022-12-06T18:41:44.308Z,3.40
2022-12-06T18:44:11.820Z,3.40
2022-12-06T18:46:38.818Z,3.40
2022-12-06T18:49:06.086Z,3.40
2022-12-06T18:51:35.137Z,3.40
2022-12-06T18:54:03.141Z,3.40
2022-12-06T18:56:29.940Z,3.40
2022-12-06T18:59:00.482Z,3.40
2022-12-06T19:01:32.402Z,3.50
2022-12-06T19:04:00.748Z,3.40
2022-12-06T19:06:29.904Z,3.40
2022-12-06T19:08:59.760Z,3.40
2022-12-06T19:11:26.588Z,3.40
2022-12-06T19:13:54.694Z,3.50
2022-12-06T19:16:23.938Z,3.50
2022-12-06T19:18:50.573Z,3.60
2022-12-06T19:21:18.082Z,3.60
2022-12-06T19:23:44.820Z,3.60
2022-12-06T19:26:11.678Z,3.60
2022-12-06T19:28:39.955Z,3.60
2022-12-06T19:31:08.530Z,3.70
2022-12-06T19:33:38.559Z,3.50
2022-12-06T19:36:12.764Z,3.50
2022-12-06T19:38:39.407Z,3.40
2022-12-06T19:41:07.426Z,3.30
2022-12-06T19:43:34.139Z,3.30
2022-12-06T19:46:11.909Z,3.40
2022-12-06T19:48:38.623Z,3.30
2022-12-06T19:51:06.093Z,3.40
2022-12-06T19:53:34.306Z,3.40
2022-12-06T19:56:01.659Z,3.40
2022-12-06T19:58:28.524Z,3.30
2022-12-06T20:00:55.092Z,3.30
2022-12-06T20:03:21.690Z,3.30
2022-12-06T20:05:48.418Z,3.30
2022-12-06T20:08:15.224Z,3.30
2022-12-06T20:10:42.159Z,3.30
2022-12-06T20:13:08.760Z,3.30
2022-12-06T20:15:35.381Z,3.20
2022-12-06T20:18:02.038Z,3.20
2022-12-06T20:20:28.627Z,3.20
2022-12-06T20:22:55.195Z,3.20
2022-12-06T20:25:21.760Z,3.30
2022-12-06T20:27:48.344Z,3.30
2022-12-06T20:30:15.078Z,3.30
2022-12-06T20:32:42.539Z,3.30
2022-12-06T20:35:09.331Z,3.30
2022-12-06T20:37:36.246Z,3.30
2022-12-06T20:40:04.142Z,3.30
2022-12-06T20:42:32.107Z,3.40
2022-12-06T20:44:58.730Z,3.30
2022-12-06T20:47:25.330Z,3.30
2022-12-06T20:49:51.935Z,3.30
2022-12-06T20:52:18.582Z,3.30
2022-12-06T20:54:45.151Z,3.30
2022-12-06T20:57:11.720Z,3.30
2022-12-06T20:59:38.677Z,3.40
2022-12-06T21:02:05.792Z,3.40
2022-12-06T21:04:32.472Z,3.30
2022-12-06T21:06:59.060Z,3.30
2022-12-06T21:09:25.628Z,3.30
2022-12-06T21:11:52.185Z,3.30
2022-12-06T21:14:19.253Z,3.20
2022-12-06T21:16:45.859Z,3.20
2022-12-06T21:19:15.570Z,3.30
2022-12-06T21:21:46.028Z,3.30
2022-12-06T21:24:16.215Z,3.20
2022-12-06T21:26:42.925Z,3.20
2022-12-06T21:29:16.661Z,3.20
2022-12-06T21:31:43.391Z,3.20
2022-12-06T21:34:11.792Z,3.20
2022-12-06T21:36:38.437Z,3.30
2022-12-06T21:39:05.452Z,3.20
2022-12-06T21:41:32.069Z,3.20
2022-12-06T21:44:00.298Z,3.20
2022-12-06T21:46:27.715Z,3.20
2022-12-06T21:48:56.998Z,3.20
2022-12-06T21:51:26.027Z,3.20
2022-12-06T21:53:52.941Z,3.20
2022-12-06T21:56:22.225Z,3.20
2022-12-06T21:58:49.425Z,3.20
2022-12-06T22:01:20.253Z,3.20
2022-12-06T22:03:51.722Z,3.20
2022-12-06T22:06:18.583Z,3.30
2022-12-06T22:08:46.537Z,3.20
2022-12-06T22:11:18.601Z,3.20
2022-12-06T22:13:46.393Z,3.20
2022-12-06T22:16:13.533Z,3.20
2022-12-06T22:18:45.297Z,3.30
2022-12-06T22:21:16.296Z,3.30
2022-12-06T22:23:43.406Z,3.30
2022-12-06T22:26:13.195Z,3.30
2022-12-06T22:28:39.755Z,3.30
2022-12-06T22:31:14.941Z,3.30
2022-12-06T22:33:42.176Z,3.20
2022-12-06T22:36:09.937Z,3.30
2022-12-06T22:38:36.949Z,3.30
2022-12-06T22:41:03.889Z,3.20
2022-12-06T22:43:30.942Z,3.20
2022-12-06T22:46:14.296Z,3.20
2022-12-06T22:48:42.083Z,3.20
2022-12-06T22:51:09.458Z,3.20
2022-12-06T22:53:36.302Z,3.20
2022-12-06T22:56:02.923Z,3.20
2022-12-06T22:58:29.498Z,3.20
2022-12-06T23:00:56.203Z,3.20
2022-12-06T23:03:22.836Z,3.20
2022-12-06T23:05:59.925Z,3.30
2022-12-06T23:08:26.997Z,3.20
2022-12-06T23:11:06.092Z,3.20
2022-12-06T23:13:33.146Z,3.20
2022-12-06T23:16:01.940Z,3.20
2022-12-06T23:18:29.474Z,3.20
2022-12-06T23:21:15.438Z,3.20
2022-12-06T23:23:53.840Z,3.20
2022-12-06T23:26:26.444Z,3.20
2022-12-06T23:28:53.219Z,3.20
2022-12-06T23:31:27.849Z,3.20
2022-12-06T23:34:07.084Z,3.20
2022-12-06T23:36:35.271Z,3.20
2022-12-06T23:39:03.487Z,3.20
2022-12-06T23:41:31.242Z,3.20
2022-12-06T23:43:58.670Z,3.20
2022-12-06T23:46:28.057Z,3.20
2022-12-06T23:48:55.143Z,3.10
2022-12-06T23:51:24.533Z,3.10
2022-12-06T23:53:56.873Z,3.10
2022-12-06T23:56:24.820Z,3.10
2022-12-06T23:58:51.651Z,3.10
